sensor_id;sensor_type;location;lat;lon;timestamp;P1;durP1;ratioP1;P2;durP2;ratioP2
76296;SDS011;65104;52.994;6.552;2024-02-21T00:02:22;5.07;;;1.83;;
76296;SDS011;65104;52.994;6.552;2024-02-21T00:04:49;6.78;;;1.70;;
76296;SDS011;65104;52.994;6.552;2024-02-21T00:07:15;6.75;;;1.77;;
76296;SDS011;65104;52.994;6.552;2024-02-21T00:09:42;5.00;;;1.70;;
76296;SDS011;65104;52.994;6.552;2024-02-21T00:12:09;3.60;;;1.27;;
76296;SDS011;65104;52.994;6.552;2024-02-21T00:14:36;5.22;;;1.23;;
76296;SDS011;65104;52.994;6.552;2024-02-21T00:17:04;6.63;;;1.35;;
76296;SDS011;65104;52.994;6.552;2024-02-21T00:19:30;4.18;;;0.95;;
76296;SDS011;65104;52.994;6.552;2024-02-21T00:21:57;5.70;;;1.67;;
76296;SDS011;65104;52.994;6.552;2024-02-21T00:24:23;6.03;;;2.17;;
76296;SDS011;65104;52.994;6.552;2024-02-21T00:26:50;4.25;;;1.73;;
76296;SDS011;65104;52.994;6.552;2024-02-21T00:29:17;5.28;;;1.98;;
76296;SDS011;65104;52.994;6.552;2024-02-21T00:31:43;4.80;;;1.45;;
76296;SDS011;65104;52.994;6.552;2024-02-21T00:34:12;8.15;;;1.70;;
76296;SDS011;65104;52.994;6.552;2024-02-21T00:36:38;6.30;;;1.60;;
76296;SDS011;65104;52.994;6.552;2024-02-21T00:39:05;5.85;;;1.67;;
76296;SDS011;65104;52.994;6.552;2024-02-21T00:41:32;4.45;;;1.38;;
76296;SDS011;65104;52.994;6.552;2024-02-21T00:43:59;9.35;;;1.73;;
76296;SDS011;65104;52.994;6.552;2024-02-21T00:46:25;4.55;;;1.65;;
76296;SDS011;65104;52.994;6.552;2024-02-21T00:48:52;6.30;;;2.15;;
76296;SDS011;65104;52.994;6.552;2024-02-21T00:51:20;5.07;;;1.58;;
76296;SDS011;65104;52.994;6.552;2024-02-21T00:53:47;6.78;;;2.25;;
76296;SDS011;65104;52.994;6.552;2024-02-21T00:56:13;4.95;;;1.50;;
76296;SDS011;65104;52.994;6.552;2024-02-21T00:58:40;6.10;;;1.90;;
76296;SDS011;65104;52.994;6.552;2024-02-21T01:01:07;9.02;;;1.63;;
76296;SDS011;65104;52.994;6.552;2024-02-21T01:03:33;7.50;;;1.83;;
76296;SDS011;65104;52.994;6.552;2024-02-21T01:06:00;2.63;;;1.02;;
76296;SDS011;65104;52.994;6.552;2024-02-21T01:08:28;7.18;;;1.55;;
76296;SDS011;65104;52.994;6.552;2024-02-21T01:10:55;4.60;;;2.05;;
76296;SDS011;65104;52.994;6.552;2024-02-21T01:13:21;6.43;;;2.22;;
76296;SDS011;65104;52.994;6.552;2024-02-21T01:15:48;5.45;;;1.70;;
76296;SDS011;65104;52.994;6.552;2024-02-21T01:18:15;6.90;;;2.10;;
76296;SDS011;65104;52.994;6.552;2024-02-21T01:20:41;4.40;;;1.60;;
76296;SDS011;65104;52.994;6.552;2024-02-21T01:23:08;12.02;;;2.33;;
76296;SDS011;65104;52.994;6.552;2024-02-21T01:25:36;7.00;;;1.92;;
76296;SDS011;65104;52.994;6.552;2024-02-21T01:28:03;5.60;;;1.95;;
76296;SDS011;65104;52.994;6.552;2024-02-21T01:30:30;6.03;;;1.75;;
76296;SDS011;65104;52.994;6.552;2024-02-21T01:32:56;6.22;;;1.58;;
76296;SDS011;65104;52.994;6.552;2024-02-21T01:35:23;7.05;;;2.10;;
76296;SDS011;65104;52.994;6.552;2024-02-21T01:37:50;13.73;;;2.13;;
76296;SDS011;65104;52.994;6.552;2024-02-21T01:40:17;6.90;;;1.83;;
76296;SDS011;65104;52.994;6.552;2024-02-21T01:42:45;8.02;;;2.15;;
76296;SDS011;65104;52.994;6.552;2024-02-21T01:45:13;10.27;;;2.17;;
76296;SDS011;65104;52.994;6.552;2024-02-21T01:47:39;11.98;;;2.50;;
76296;SDS011;65104;52.994;6.552;2024-02-21T01:50:07;4.45;;;2.05;;
76296;SDS011;65104;52.994;6.552;2024-02-21T01:52:34;6.35;;;2.20;;
76296;SDS011;65104;52.994;6.552;2024-02-21T01:55:01;4.22;;;1.92;;
76296;SDS011;65104;52.994;6.552;2024-02-21T01:57:28;10.00;;;2.53;;
76296;SDS011;65104;52.994;6.552;2024-02-21T01:59:57;7.80;;;2.33;;
76296;SDS011;65104;52.994;6.552;2024-02-21T02:02:24;9.27;;;2.15;;
76296;SDS011;65104;52.994;6.552;2024-02-21T02:04:51;7.78;;;2.72;;
76296;SDS011;65104;52.994;6.552;2024-02-21T02:07:18;7.63;;;3.13;;
76296;SDS011;65104;52.994;6.552;2024-02-21T02:09:45;4.28;;;2.08;;
76296;SDS011;65104;52.994;6.552;2024-02-21T02:12:11;6.65;;;2.97;;
76296;SDS011;65104;52.994;6.552;2024-02-21T02:14:38;6.32;;;3.10;;
76296;SDS011;65104;52.994;6.552;2024-02-21T02:17:06;5.95;;;1.75;;
76296;SDS011;65104;52.994;6.552;2024-02-21T02:19:34;6.25;;;2.13;;
76296;SDS011;65104;52.994;6.552;2024-02-21T02:22:03;7.32;;;2.25;;
76296;SDS011;65104;52.994;6.552;2024-02-21T02:24:37;8.35;;;2.58;;
76296;SDS011;65104;52.994;6.552;2024-02-21T02:27:03;7.38;;;2.05;;
76296;SDS011;65104;52.994;6.552;2024-02-21T02:29:31;8.88;;;2.90;;
76296;SDS011;65104;52.994;6.552;2024-02-21T02:31:58;10.18;;;3.00;;
76296;SDS011;65104;52.994;6.552;2024-02-21T02:34:25;7.20;;;2.53;;
76296;SDS011;65104;52.994;6.552;2024-02-21T02:36:51;5.05;;;2.67;;
76296;SDS011;65104;52.994;6.552;2024-02-21T02:39:19;12.00;;;3.25;;
76296;SDS011;65104;52.994;6.552;2024-02-21T02:41:47;5.93;;;2.05;;
76296;SDS011;65104;52.994;6.552;2024-02-21T02:44:14;7.40;;;2.22;;
76296;SDS011;65104;52.994;6.552;2024-02-21T02:46:41;3.45;;;2.17;;
76296;SDS011;65104;52.994;6.552;2024-02-21T02:49:08;5.45;;;2.72;;
76296;SDS011;65104;52.994;6.552;2024-02-21T02:51:34;10.07;;;2.80;;
76296;SDS011;65104;52.994;6.552;2024-02-21T02:54:02;8.98;;;2.75;;
76296;SDS011;65104;52.994;6.552;2024-02-21T02:56:28;7.20;;;2.55;;
76296;SDS011;65104;52.994;6.552;2024-02-21T02:58:56;12.77;;;3.42;;
76296;SDS011;65104;52.994;6.552;2024-02-21T03:01:23;7.70;;;2.78;;
76296;SDS011;65104;52.994;6.552;2024-02-21T03:03:50;8.48;;;2.22;;
76296;SDS011;65104;52.994;6.552;2024-02-21T03:06:16;7.93;;;2.72;;
76296;SDS011;65104;52.994;6.552;2024-02-21T03:08:43;9.68;;;3.60;;
76296;SDS011;65104;52.994;6.552;2024-02-21T03:11:10;8.70;;;2.38;;
76296;SDS011;65104;52.994;6.552;2024-02-21T03:13:37;10.23;;;3.08;;
76296;SDS011;65104;52.994;6.552;2024-02-21T03:16:05;13.13;;;2.90;;
76296;SDS011;65104;52.994;6.552;2024-02-21T03:18:32;10.27;;;3.50;;
76296;SDS011;65104;52.994;6.552;2024-02-21T03:20:59;14.85;;;3.72;;
76296;SDS011;65104;52.994;6.552;2024-02-21T03:23:25;10.93;;;3.50;;
76296;SDS011;65104;52.994;6.552;2024-02-21T03:25:52;12.27;;;3.45;;
76296;SDS011;65104;52.994;6.552;2024-02-21T03:28:19;6.55;;;3.00;;
76296;SDS011;65104;52.994;6.552;2024-02-21T03:30:45;9.98;;;3.25;;
76296;SDS011;65104;52.994;6.552;2024-02-21T03:33:13;7.03;;;4.15;;
76296;SDS011;65104;52.994;6.552;2024-02-21T03:35:40;10.00;;;3.45;;
76296;SDS011;65104;52.994;6.552;2024-02-21T03:38:06;17.35;;;3.85;;
76296;SDS011;65104;52.994;6.552;2024-02-21T03:40:33;9.10;;;3.22;;
76296;SDS011;65104;52.994;6.552;2024-02-21T03:43:00;14.98;;;3.85;;
76296;SDS011;65104;52.994;6.552;2024-02-21T03:45:26;11.30;;;3.10;;
76296;SDS011;65104;52.994;6.552;2024-02-21T03:47:53;9.15;;;3.90;;
76296;SDS011;65104;52.994;6.552;2024-02-21T03:50:21;10.63;;;4.10;;
76296;SDS011;65104;52.994;6.552;2024-02-21T03:52:48;11.93;;;3.65;;
76296;SDS011;65104;52.994;6.552;2024-02-21T03:55:14;7.68;;;2.92;;
76296;SDS011;65104;52.994;6.552;2024-02-21T03:57:41;10.00;;;3.80;;
76296;SDS011;65104;52.994;6.552;2024-02-21T04:00:08;11.15;;;3.95;;
76296;SDS011;65104;52.994;6.552;2024-02-21T04:02:37;17.65;;;3.75;;
76296;SDS011;65104;52.994;6.552;2024-02-21T04:05:04;19.27;;;3.80;;
76296;SDS011;65104;52.994;6.552;2024-02-21T04:07:32;13.25;;;3.92;;
76296;SDS011;65104;52.994;6.552;2024-02-21T04:09:59;9.50;;;4.20;;
76296;SDS011;65104;52.994;6.552;2024-02-21T04:12:25;10.18;;;4.25;;
76296;SDS011;65104;52.994;6.552;2024-02-21T04:14:52;10.38;;;4.03;;
76296;SDS011;65104;52.994;6.552;2024-02-21T04:17:19;11.95;;;4.40;;
76296;SDS011;65104;52.994;6.552;2024-02-21T04:19:45;12.45;;;4.93;;
76296;SDS011;65104;52.994;6.552;2024-02-21T04:22:12;9.73;;;3.60;;
76296;SDS011;65104;52.994;6.552;2024-02-21T04:24:40;9.20;;;4.30;;
76296;SDS011;65104;52.994;6.552;2024-02-21T04:27:07;11.23;;;4.82;;
76296;SDS011;65104;52.994;6.552;2024-02-21T04:29:33;13.20;;;4.90;;
76296;SDS011;65104;52.994;6.552;2024-02-21T04:32:01;7.97;;;4.20;;
76296;SDS011;65104;52.994;6.552;2024-02-21T04:34:28;12.10;;;4.70;;
76296;SDS011;65104;52.994;6.552;2024-02-21T04:36:54;10.52;;;3.85;;
76296;SDS011;65104;52.994;6.552;2024-02-21T04:39:21;13.65;;;4.43;;
76296;SDS011;65104;52.994;6.552;2024-02-21T04:41:49;9.18;;;4.20;;
76296;SDS011;65104;52.994;6.552;2024-02-21T04:44:16;13.13;;;4.55;;
76296;SDS011;65104;52.994;6.552;2024-02-21T04:46:42;12.88;;;3.88;;
76296;SDS011;65104;52.994;6.552;2024-02-21T04:49:09;14.05;;;4.70;;
76296;SDS011;65104;52.994;6.552;2024-02-21T04:51:36;12.05;;;4.95;;
76296;SDS011;65104;52.994;6.552;2024-02-21T04:54:02;11.07;;;4.68;;
76296;SDS011;65104;52.994;6.552;2024-02-21T04:56:29;9.75;;;3.83;;
76296;SDS011;65104;52.994;6.552;2024-02-21T04:58:57;10.82;;;4.93;;
76296;SDS011;65104;52.994;6.552;2024-02-21T05:01:24;11.40;;;4.85;;
76296;SDS011;65104;52.994;6.552;2024-02-21T05:03:51;17.77;;;5.25;;
76296;SDS011;65104;52.994;6.552;2024-02-21T05:06:17;9.85;;;4.47;;
76296;SDS011;65104;52.994;6.552;2024-02-21T05:08:44;8.13;;;4.38;;
76296;SDS011;65104;52.994;6.552;2024-02-21T05:11:11;11.20;;;4.07;;
76296;SDS011;65104;52.994;6.552;2024-02-21T05:13:37;14.48;;;4.03;;
76296;SDS011;65104;52.994;6.552;2024-02-21T05:16:06;10.93;;;3.45;;
76296;SDS011;65104;52.994;6.552;2024-02-21T05:18:32;14.60;;;4.30;;
76296;SDS011;65104;52.994;6.552;2024-02-21T05:21:01;16.05;;;4.00;;
76296;SDS011;65104;52.994;6.552;2024-02-21T05:23:27;15.05;;;4.35;;
76296;SDS011;65104;52.994;6.552;2024-02-21T05:25:54;11.35;;;4.30;;
76296;SDS011;65104;52.994;6.552;2024-02-21T05:28:21;13.65;;;4.70;;
76296;SDS011;65104;52.994;6.552;2024-02-21T05:30:47;17.20;;;4.90;;
76296;SDS011;65104;52.994;6.552;2024-02-21T05:33:15;13.75;;;4.88;;
76296;SDS011;65104;52.994;6.552;2024-02-21T05:35:46;20.10;;;5.05;;
76296;SDS011;65104;52.994;6.552;2024-02-21T05:38:12;12.25;;;4.75;;
76296;SDS011;65104;52.994;6.552;2024-02-21T05:40:39;12.55;;;5.03;;
76296;SDS011;65104;52.994;6.552;2024-02-21T05:43:06;14.82;;;5.15;;
76296;SDS011;65104;52.994;6.552;2024-02-21T05:45:33;15.55;;;5.18;;
76296;SDS011;65104;52.994;6.552;2024-02-21T05:48:00;15.63;;;4.57;;
76296;SDS011;65104;52.994;6.552;2024-02-21T05:50:29;14.13;;;5.38;;
76296;SDS011;65104;52.994;6.552;2024-02-21T05:52:55;11.38;;;5.00;;
76296;SDS011;65104;52.994;6.552;2024-02-21T05:55:22;15.45;;;5.63;;
76296;SDS011;65104;52.994;6.552;2024-02-21T05:57:49;13.93;;;4.97;;
76296;SDS011;65104;52.994;6.552;2024-02-21T06:00:16;26.77;;;6.90;;
76296;SDS011;65104;52.994;6.552;2024-02-21T06:02:43;13.13;;;5.30;;
76296;SDS011;65104;52.994;6.552;2024-02-21T06:05:09;20.27;;;6.22;;
76296;SDS011;65104;52.994;6.552;2024-02-21T06:07:38;19.55;;;5.10;;
76296;SDS011;65104;52.994;6.552;2024-02-21T06:10:05;13.63;;;5.25;;
76296;SDS011;65104;52.994;6.552;2024-02-21T06:12:33;11.05;;;5.18;;
76296;SDS011;65104;52.994;6.552;2024-02-21T06:14:59;12.93;;;5.22;;
76296;SDS011;65104;52.994;6.552;2024-02-21T06:17:26;18.40;;;6.00;;
76296;SDS011;65104;52.994;6.552;2024-02-21T06:19:53;18.00;;;5.45;;
76296;SDS011;65104;52.994;6.552;2024-02-21T06:22:22;13.93;;;4.75;;
76296;SDS011;65104;52.994;6.552;2024-02-21T06:24:50;16.58;;;5.53;;
76296;SDS011;65104;52.994;6.552;2024-02-21T06:27:19;15.90;;;4.72;;
76296;SDS011;65104;52.994;6.552;2024-02-21T06:29:45;15.52;;;5.00;;
76296;SDS011;65104;52.994;6.552;2024-02-21T06:32:12;15.20;;;5.07;;
76296;SDS011;65104;52.994;6.552;2024-02-21T06:34:39;23.08;;;5.90;;
76296;SDS011;65104;52.994;6.552;2024-02-21T06:37:05;14.93;;;4.80;;
76296;SDS011;65104;52.994;6.552;2024-02-21T06:39:32;23.20;;;5.40;;
76296;SDS011;65104;52.994;6.552;2024-02-21T06:42:00;17.42;;;4.80;;
76296;SDS011;65104;52.994;6.552;2024-02-21T06:44:27;15.70;;;4.57;;
76296;SDS011;65104;52.994;6.552;2024-02-21T06:46:53;14.75;;;4.90;;
76296;SDS011;65104;52.994;6.552;2024-02-21T06:49:21;15.02;;;5.03;;
76296;SDS011;65104;52.994;6.552;2024-02-21T06:51:48;15.93;;;4.53;;
76296;SDS011;65104;52.994;6.552;2024-02-21T06:54:15;15.25;;;4.78;;
76296;SDS011;65104;52.994;6.552;2024-02-21T06:56:41;15.85;;;4.22;;
76296;SDS011;65104;52.994;6.552;2024-02-21T06:59:09;13.10;;;4.30;;
76296;SDS011;65104;52.994;6.552;2024-02-21T07:01:43;17.30;;;5.20;;
76296;SDS011;65104;52.994;6.552;2024-02-21T07:04:11;11.40;;;4.03;;
76296;SDS011;65104;52.994;6.552;2024-02-21T07:06:38;15.15;;;4.60;;
76296;SDS011;65104;52.994;6.552;2024-02-21T07:09:04;13.68;;;4.43;;
76296;SDS011;65104;52.994;6.552;2024-02-21T07:11:31;14.02;;;4.90;;
76296;SDS011;65104;52.994;6.552;2024-02-21T07:13:57;15.13;;;4.47;;
76296;SDS011;65104;52.994;6.552;2024-02-21T07:16:25;16.30;;;4.53;;
76296;SDS011;65104;52.994;6.552;2024-02-21T07:18:53;13.52;;;4.28;;
76296;SDS011;65104;52.994;6.552;2024-02-21T07:21:21;10.13;;;3.75;;
76296;SDS011;65104;52.994;6.552;2024-02-21T07:23:47;10.82;;;3.80;;
76296;SDS011;65104;52.994;6.552;2024-02-21T07:26:14;10.45;;;3.55;;
76296;SDS011;65104;52.994;6.552;2024-02-21T07:28:41;15.77;;;4.93;;
76296;SDS011;65104;52.994;6.552;2024-02-21T07:31:07;9.65;;;3.88;;
76296;SDS011;65104;52.994;6.552;2024-02-21T07:33:35;16.25;;;4.47;;
76296;SDS011;65104;52.994;6.552;2024-02-21T07:36:05;11.43;;;4.28;;
76296;SDS011;65104;52.994;6.552;2024-02-21T07:38:33;10.45;;;3.58;;
76296;SDS011;65104;52.994;6.552;2024-02-21T07:41:00;6.60;;;3.38;;
76296;SDS011;65104;52.994;6.552;2024-02-21T07:43:28;14.25;;;3.92;;
76296;SDS011;65104;52.994;6.552;2024-02-21T07:45:54;10.45;;;3.75;;
76296;SDS011;65104;52.994;6.552;2024-02-21T07:48:21;11.60;;;3.28;;
76296;SDS011;65104;52.994;6.552;2024-02-21T07:50:51;10.95;;;4.43;;
76296;SDS011;65104;52.994;6.552;2024-02-21T07:53:17;17.05;;;4.70;;
76296;SDS011;65104;52.994;6.552;2024-02-21T07:55:44;15.43;;;3.80;;
76296;SDS011;65104;52.994;6.552;2024-02-21T07:58:11;12.18;;;3.88;;
76296;SDS011;65104;52.994;6.552;2024-02-21T08:00:37;11.30;;;4.53;;
76296;SDS011;65104;52.994;6.552;2024-02-21T08:03:04;10.75;;;4.25;;
76296;SDS011;65104;52.994;6.552;2024-02-21T08:05:30;14.20;;;4.53;;
76296;SDS011;65104;52.994;6.552;2024-02-21T08:08:02;16.65;;;5.35;;
76296;SDS011;65104;52.994;6.552;2024-02-21T08:10:29;13.55;;;6.22;;
76296;SDS011;65104;52.994;6.552;2024-02-21T08:12:56;17.70;;;7.07;;
76296;SDS011;65104;52.994;6.552;2024-02-21T08:15:22;14.63;;;5.55;;
76296;SDS011;65104;52.994;6.552;2024-02-21T08:17:53;18.08;;;7.07;;
76296;SDS011;65104;52.994;6.552;2024-02-21T08:20:23;12.63;;;6.20;;
76296;SDS011;65104;52.994;6.552;2024-02-21T08:22:50;13.77;;;6.93;;
76296;SDS011;65104;52.994;6.552;2024-02-21T08:25:18;17.73;;;7.38;;
76296;SDS011;65104;52.994;6.552;2024-02-21T08:27:45;14.90;;;7.20;;
76296;SDS011;65104;52.994;6.552;2024-02-21T08:30:12;15.52;;;7.57;;
76296;SDS011;65104;52.994;6.552;2024-02-21T08:32:39;17.67;;;6.90;;
76296;SDS011;65104;52.994;6.552;2024-02-21T08:35:06;19.90;;;6.90;;
76296;SDS011;65104;52.994;6.552;2024-02-21T08:37:33;21.08;;;7.68;;
76296;SDS011;65104;52.994;6.552;2024-02-21T08:39:59;14.52;;;5.75;;
76296;SDS011;65104;52.994;6.552;2024-02-21T08:42:31;17.95;;;6.47;;
76296;SDS011;65104;52.994;6.552;2024-02-21T08:44:58;14.73;;;8.00;;
76296;SDS011;65104;52.994;6.552;2024-02-21T08:47:24;15.75;;;6.40;;
76296;SDS011;65104;52.994;6.552;2024-02-21T08:49:51;17.67;;;6.72;;
76296;SDS011;65104;52.994;6.552;2024-02-21T08:52:18;15.63;;;6.68;;
76296;SDS011;65104;52.994;6.552;2024-02-21T08:54:44;17.50;;;7.57;;
76296;SDS011;65104;52.994;6.552;2024-02-21T08:57:11;13.98;;;8.02;;
76296;SDS011;65104;52.994;6.552;2024-02-21T08:59:40;20.40;;;7.93;;
76296;SDS011;65104;52.994;6.552;2024-02-21T09:02:07;14.68;;;6.35;;
76296;SDS011;65104;52.994;6.552;2024-02-21T09:04:34;16.92;;;7.65;;
76296;SDS011;65104;52.994;6.552;2024-02-21T09:07:00;14.82;;;7.28;;
76296;SDS011;65104;52.994;6.552;2024-02-21T09:09:28;18.90;;;7.60;;
76296;SDS011;65104;52.994;6.552;2024-02-21T09:11:54;17.50;;;7.55;;
76296;SDS011;65104;52.994;6.552;2024-02-21T09:14:21;14.70;;;7.25;;
76296;SDS011;65104;52.994;6.552;2024-02-21T09:16:49;19.45;;;7.38;;
76296;SDS011;65104;52.994;6.552;2024-02-21T09:19:15;19.27;;;7.60;;
76296;SDS011;65104;52.994;6.552;2024-02-21T09:21:43;16.27;;;8.18;;
76296;SDS011;65104;52.994;6.552;2024-02-21T09:24:09;15.80;;;7.45;;
76296;SDS011;65104;52.994;6.552;2024-02-21T09:26:36;16.00;;;7.65;;
76296;SDS011;65104;52.994;6.552;2024-02-21T09:29:03;15.93;;;8.25;;
76296;SDS011;65104;52.994;6.552;2024-02-21T09:31:29;16.63;;;8.10;;
76296;SDS011;65104;52.994;6.552;2024-02-21T09:33:57;20.77;;;8.77;;
76296;SDS011;65104;52.994;6.552;2024-02-21T09:36:24;22.75;;;8.98;;
76296;SDS011;65104;52.994;6.552;2024-02-21T09:38:51;18.38;;;8.07;;
76296;SDS011;65104;52.994;6.552;2024-02-21T09:41:22;20.92;;;9.35;;
76296;SDS011;65104;52.994;6.552;2024-02-21T09:43:52;20.23;;;9.27;;
76296;SDS011;65104;52.994;6.552;2024-02-21T09:46:21;23.60;;;9.27;;
76296;SDS011;65104;52.994;6.552;2024-02-21T09:48:54;21.60;;;9.48;;
76296;SDS011;65104;52.994;6.552;2024-02-21T09:51:34;16.13;;;8.10;;
76296;SDS011;65104;52.994;6.552;2024-02-21T09:54:05;17.38;;;8.25;;
76296;SDS011;65104;52.994;6.552;2024-02-21T09:56:33;15.05;;;7.53;;
76296;SDS011;65104;52.994;6.552;2024-02-21T09:59:01;22.70;;;9.75;;
76296;SDS011;65104;52.994;6.552;2024-02-21T10:01:30;15.55;;;8.50;;
76296;SDS011;65104;52.994;6.552;2024-02-21T10:03:56;21.05;;;10.02;;
76296;SDS011;65104;52.994;6.552;2024-02-21T10:06:25;21.00;;;8.85;;
76296;SDS011;65104;52.994;6.552;2024-02-21T10:08:52;19.05;;;8.90;;
76296;SDS011;65104;52.994;6.552;2024-02-21T10:11:22;21.88;;;9.23;;
76296;SDS011;65104;52.994;6.552;2024-02-21T10:13:49;20.20;;;8.65;;
76296;SDS011;65104;52.994;6.552;2024-02-21T10:16:16;18.55;;;9.55;;
76296;SDS011;65104;52.994;6.552;2024-02-21T10:18:43;19.08;;;8.07;;
76296;SDS011;65104;52.994;6.552;2024-02-21T10:21:10;19.73;;;9.48;;
76296;SDS011;65104;52.994;6.552;2024-02-21T10:23:44;20.23;;;9.55;;
76296;SDS011;65104;52.994;6.552;2024-02-21T10:26:11;22.48;;;9.65;;
76296;SDS011;65104;52.994;6.552;2024-02-21T10:28:38;17.83;;;10.10;;
76296;SDS011;65104;52.994;6.552;2024-02-21T10:31:07;19.52;;;9.25;;
76296;SDS011;65104;52.994;6.552;2024-02-21T10:33:35;16.90;;;8.80;;
76296;SDS011;65104;52.994;6.552;2024-02-21T10:36:08;17.80;;;8.60;;
76296;SDS011;65104;52.994;6.552;2024-02-21T10:38:36;17.80;;;8.50;;
76296;SDS011;65104;52.994;6.552;2024-02-21T10:41:05;16.33;;;8.73;;
76296;SDS011;65104;52.994;6.552;2024-02-21T10:43:35;18.90;;;8.57;;
76296;SDS011;65104;52.994;6.552;2024-02-21T10:46:05;19.00;;;8.25;;
76296;SDS011;65104;52.994;6.552;2024-02-21T10:51:02;18.13;;;7.97;;
76296;SDS011;65104;52.994;6.552;2024-02-21T10:53:39;16.58;;;8.32;;
76296;SDS011;65104;52.994;6.552;2024-02-21T10:56:15;16.75;;;7.93;;
76296;SDS011;65104;52.994;6.552;2024-02-21T10:58:48;14.20;;;8.15;;
76296;SDS011;65104;52.994;6.552;2024-02-21T11:01:15;17.70;;;7.68;;
76296;SDS011;65104;52.994;6.552;2024-02-21T11:03:43;14.50;;;7.45;;
76296;SDS011;65104;52.994;6.552;2024-02-21T11:06:12;13.48;;;6.53;;
76296;SDS011;65104;52.994;6.552;2024-02-21T11:08:41;17.85;;;7.80;;
76296;SDS011;65104;52.994;6.552;2024-02-21T11:11:08;12.88;;;6.90;;
76296;SDS011;65104;52.994;6.552;2024-02-21T11:13:38;12.80;;;7.53;;
76296;SDS011;65104;52.994;6.552;2024-02-21T11:16:08;15.48;;;7.07;;
76296;SDS011;65104;52.994;6.552;2024-02-21T11:18:35;9.25;;;5.47;;
76296;SDS011;65104;52.994;6.552;2024-02-21T11:21:02;12.63;;;6.65;;
76296;SDS011;65104;52.994;6.552;2024-02-21T11:23:30;11.30;;;6.45;;
76296;SDS011;65104;52.994;6.552;2024-02-21T11:26:03;16.25;;;7.63;;
76296;SDS011;65104;52.994;6.552;2024-02-21T11:28:31;14.05;;;6.60;;
76296;SDS011;65104;52.994;6.552;2024-02-21T11:31:07;10.13;;;5.40;;
76296;SDS011;65104;52.994;6.552;2024-02-21T11:33:35;12.88;;;5.47;;
76296;SDS011;65104;52.994;6.552;2024-02-21T11:36:01;10.98;;;5.20;;
76296;SDS011;65104;52.994;6.552;2024-02-21T11:38:29;11.23;;;5.40;;
76296;SDS011;65104;52.994;6.552;2024-02-21T11:40:56;12.60;;;6.25;;
76296;SDS011;65104;52.994;6.552;2024-02-21T11:43:23;8.48;;;5.00;;
76296;SDS011;65104;52.994;6.552;2024-02-21T11:45:50;12.23;;;5.97;;
76296;SDS011;65104;52.994;6.552;2024-02-21T11:48:18;11.60;;;5.63;;
76296;SDS011;65104;52.994;6.552;2024-02-21T11:50:52;11.30;;;5.32;;
76296;SDS011;65104;52.994;6.552;2024-02-21T11:53:19;10.30;;;4.95;;
76296;SDS011;65104;52.994;6.552;2024-02-21T11:55:46;8.48;;;4.28;;
76296;SDS011;65104;52.994;6.552;2024-02-21T11:58:14;10.93;;;5.25;;
76296;SDS011;65104;52.994;6.552;2024-02-21T12:03:07;8.25;;;4.28;;
76296;SDS011;65104;52.994;6.552;2024-02-21T12:05:35;10.73;;;4.47;;
76296;SDS011;65104;52.994;6.552;2024-02-21T12:08:02;12.07;;;4.68;;
76296;SDS011;65104;52.994;6.552;2024-02-21T12:10:30;8.48;;;4.22;;
76296;SDS011;65104;52.994;6.552;2024-02-21T12:13:05;8.70;;;4.60;;
76296;SDS011;65104;52.994;6.552;2024-02-21T12:17:59;7.45;;;4.15;;
76296;SDS011;65104;52.994;6.552;2024-02-21T12:20:25;7.20;;;4.20;;
76296;SDS011;65104;52.994;6.552;2024-02-21T12:22:54;7.88;;;4.07;;
76296;SDS011;65104;52.994;6.552;2024-02-21T12:25:21;10.02;;;3.65;;
76296;SDS011;65104;52.994;6.552;2024-02-21T12:27:51;6.38;;;3.78;;
76296;SDS011;65104;52.994;6.552;2024-02-21T12:30:18;10.40;;;3.70;;
76296;SDS011;65104;52.994;6.552;2024-02-21T12:32:45;7.68;;;4.72;;
76296;SDS011;65104;52.994;6.552;2024-02-21T12:35:13;10.75;;;4.68;;
76296;SDS011;65104;52.994;6.552;2024-02-21T12:37:40;9.30;;;4.72;;
76296;SDS011;65104;52.994;6.552;2024-02-21T12:40:09;9.00;;;4.57;;
76296;SDS011;65104;52.994;6.552;2024-02-21T12:42:38;12.52;;;4.70;;
76296;SDS011;65104;52.994;6.552;2024-02-21T12:45:05;11.45;;;5.25;;
76296;SDS011;65104;52.994;6.552;2024-02-21T12:47:32;10.23;;;4.60;;
76296;SDS011;65104;52.994;6.552;2024-02-21T12:49:59;9.75;;;4.60;;
76296;SDS011;65104;52.994;6.552;2024-02-21T12:52:28;9.15;;;4.72;;
76296;SDS011;65104;52.994;6.552;2024-02-21T12:54:54;8.15;;;4.18;;
76296;SDS011;65104;52.994;6.552;2024-02-21T12:57:25;11.48;;;5.43;;
76296;SDS011;65104;52.994;6.552;2024-02-21T12:59:52;7.90;;;3.92;;
76296;SDS011;65104;52.994;6.552;2024-02-21T13:02:18;5.47;;;3.55;;
76296;SDS011;65104;52.994;6.552;2024-02-21T13:04:46;6.53;;;4.18;;
76296;SDS011;65104;52.994;6.552;2024-02-21T13:07:12;7.88;;;4.30;;
76296;SDS011;65104;52.994;6.552;2024-02-21T13:09:39;7.20;;;3.97;;
76296;SDS011;65104;52.994;6.552;2024-02-21T13:12:06;6.07;;;3.42;;
76296;SDS011;65104;52.994;6.552;2024-02-21T13:14:35;7.57;;;3.53;;
76296;SDS011;65104;52.994;6.552;2024-02-21T13:17:04;6.47;;;3.25;;
76296;SDS011;65104;52.994;6.552;2024-02-21T13:19:31;6.35;;;3.00;;
76296;SDS011;65104;52.994;6.552;2024-02-21T13:21:57;4.82;;;2.78;;
76296;SDS011;65104;52.994;6.552;2024-02-21T13:24:24;5.38;;;2.97;;
76296;SDS011;65104;52.994;6.552;2024-02-21T13:26:51;10.07;;;4.00;;
76296;SDS011;65104;52.994;6.552;2024-02-21T13:29:17;31.33;;;9.15;;
76296;SDS011;65104;52.994;6.552;2024-02-21T13:31:47;35.70;;;11.00;;
76296;SDS011;65104;52.994;6.552;2024-02-21T13:34:15;7.40;;;4.15;;
76296;SDS011;65104;52.994;6.552;2024-02-21T13:36:42;7.18;;;3.80;;
76296;SDS011;65104;52.994;6.552;2024-02-21T13:39:08;11.32;;;4.35;;
76296;SDS011;65104;52.994;6.552;2024-02-21T13:41:37;8.95;;;4.45;;
76296;SDS011;65104;52.994;6.552;2024-02-21T13:44:04;9.30;;;4.65;;
76296;SDS011;65104;52.994;6.552;2024-02-21T13:46:31;27.63;;;10.52;;
76296;SDS011;65104;52.994;6.552;2024-02-21T13:49:17;10.05;;;5.28;;
76296;SDS011;65104;52.994;6.552;2024-02-21T13:51:44;11.95;;;5.00;;
76296;SDS011;65104;52.994;6.552;2024-02-21T13:54:10;8.68;;;4.18;;
76296;SDS011;65104;52.994;6.552;2024-02-21T13:56:39;15.93;;;6.13;;
76296;SDS011;65104;52.994;6.552;2024-02-21T13:59:06;7.82;;;4.13;;
76296;SDS011;65104;52.994;6.552;2024-02-21T14:01:33;11.02;;;3.88;;
76296;SDS011;65104;52.994;6.552;2024-02-21T14:04:02;10.13;;;4.00;;
76296;SDS011;65104;52.994;6.552;2024-02-21T14:06:29;8.27;;;3.85;;
76296;SDS011;65104;52.994;6.552;2024-02-21T14:08:56;7.82;;;4.78;;
76296;SDS011;65104;52.994;6.552;2024-02-21T14:11:23;9.05;;;4.28;;
76296;SDS011;65104;52.994;6.552;2024-02-21T14:13:50;6.65;;;3.97;;
76296;SDS011;65104;52.994;6.552;2024-02-21T14:16:16;7.80;;;4.03;;
76296;SDS011;65104;52.994;6.552;2024-02-21T14:18:43;8.18;;;4.10;;
76296;SDS011;65104;52.994;6.552;2024-02-21T14:21:11;9.90;;;5.47;;
76296;SDS011;65104;52.994;6.552;2024-02-21T14:23:38;8.13;;;4.78;;
76296;SDS011;65104;52.994;6.552;2024-02-21T14:26:04;8.23;;;4.03;;
76296;SDS011;65104;52.994;6.552;2024-02-21T14:28:31;9.38;;;4.10;;
76296;SDS011;65104;52.994;6.552;2024-02-21T14:30:59;7.13;;;3.92;;
76296;SDS011;65104;52.994;6.552;2024-02-21T14:33:26;12.93;;;5.05;;
76296;SDS011;65104;52.994;6.552;2024-02-21T14:35:53;7.95;;;4.60;;
76296;SDS011;65104;52.994;6.552;2024-02-21T14:38:21;8.15;;;4.00;;
76296;SDS011;65104;52.994;6.552;2024-02-21T14:40:48;9.48;;;4.13;;
76296;SDS011;65104;52.994;6.552;2024-02-21T14:43:15;9.02;;;4.55;;
76296;SDS011;65104;52.994;6.552;2024-02-21T14:45:42;9.20;;;4.45;;
76296;SDS011;65104;52.994;6.552;2024-02-21T14:48:12;10.80;;;4.80;;